Time;durP1;ratioP1;P1;durP2;ratioP2;P2;SDS_P1;SDS_P2;PMS_P1;PMS_P2;Temp;Humidity;BMP_temperature;BMP_pressure;BME280_temperature;BME280_humidity;BME280_pressure;Samples;Min_cycle;Max_cycle;Signal;HPM_P1;HPM_P2
2023/10/30 00:02:11;;;;;;;2.20;0.40;;;9.90;99.90;;;;;;5035284;28;20113;-75
2023/10/30 00:04:37;;;;;;;1.98;0.70;;;9.90;99.90;;;;;;5039349;28;20041;-73
2023/10/30 00:07:02;;;;;;;3.63;0.50;;;9.90;99.90;;;;;;5039803;28;20033;-74
2023/10/30 00:09:28;;;;;;;2.38;0.45;;;9.90;99.90;;;;;;5034761;28;20055;-74
2023/10/30 00:11:54;;;;;;;4.28;0.80;;;9.90;99.90;;;;;;5013775;28;20029;-73
2023/10/30 00:14:20;;;;;;;4.65;1.15;;;9.80;99.90;;;;;;5036990;28;20044;-73
2023/10/30 00:16:45;;;;;;;4.15;0.40;;;9.80;99.90;;;;;;5034247;28;20447;-73
2023/10/30 00:19:11;;;;;;;3.88;0.93;;;9.80;99.90;;;;;;5037748;28;20520;-74
2023/10/30 00:21:36;;;;;;;9.73;0.52;;;9.80;99.90;;;;;;5030323;28;20127;-75
2023/10/30 00:24:02;;;;;;;7.43;1.35;;;9.70;99.90;;;;;;5039162;28;20394;-73
2023/10/30 00:26:29;;;;;;;3.80;1.17;;;9.80;99.90;;;;;;5016282;28;20036;-75
2023/10/30 00:28:55;;;;;;;5.38;1.15;;;9.70;99.90;;;;;;5038127;28;20095;-73
2023/10/30 00:31:20;;;;;;;6.57;0.40;;;9.70;99.90;;;;;;5015006;28;20495;-74
2023/10/30 00:33:46;;;;;;;5.47;0.50;;;9.80;99.90;;;;;;5034721;28;20180;-74
2023/10/30 00:36:11;;;;;;;5.28;0.77;;;9.70;99.90;;;;;;5035874;28;20029;-74
2023/10/30 00:38:37;;;;;;;6.25;1.15;;;9.70;99.90;;;;;;5038188;28;20505;-73
2023/10/30 00:41:03;;;;;;;3.58;0.50;;;9.70;99.90;;;;;;5017118;28;20040;-73
2023/10/30 00:43:28;;;;;;;12.45;1.52;;;9.70;99.90;;;;;;5041723;28;20036;-73
2023/10/30 00:45:54;;;;;;;9.43;1.42;;;9.70;99.90;;;;;;5034795;28;20130;-73
2023/10/30 00:48:19;;;;;;;7.05;1.00;;;9.80;99.90;;;;;;5022274;28;20479;-75
2023/10/30 00:50:45;;;;;;;11.00;0.63;;;9.80;99.90;;;;;;5018541;28;20056;-76
2023/10/30 00:53:10;;;;;;;7.43;0.93;;;9.80;99.90;;;;;;5037986;28;20521;-74
2023/10/30 00:55:38;;;;;;;6.97;0.88;;;9.80;99.90;;;;;;5016276;28;20762;-74
2023/10/30 00:58:07;;;;;;;5.78;0.85;;;9.70;99.90;;;;;;5016591;28;20104;-74
2023/10/30 01:00:33;;;;;;;5.45;0.82;;;9.80;99.90;;;;;;5016338;28;20083;-73
2023/10/30 01:02:59;;;;;;;2.10;0.50;;;9.80;99.90;;;;;;5034815;28;20056;-74
2023/10/30 01:05:24;;;;;;;6.60;0.82;;;9.80;99.90;;;;;;5015311;28;20057;-74
2023/10/30 01:07:50;;;;;;;9.77;0.80;;;9.80;99.90;;;;;;5018275;28;20490;-74
2023/10/30 01:10:16;;;;;;;2.85;0.43;;;9.70;99.90;;;;;;5030219;28;20029;-74
2023/10/30 01:12:42;;;;;;;9.40;1.80;;;9.80;99.90;;;;;;5035687;28;24959;-73
2023/10/30 01:15:08;;;;;;;3.88;0.43;;;9.80;99.90;;;;;;5019496;28;20044;-76
2023/10/30 01:17:33;;;;;;;8.32;1.35;;;9.80;99.90;;;;;;5016950;28;20047;-73
2023/10/30 01:20:02;;;;;;;5.85;0.82;;;9.80;99.90;;;;;;5035268;28;20029;-73
2023/10/30 01:22:28;;;;;;;11.85;1.35;;;9.70;99.90;;;;;;5029169;28;20045;-74
2023/10/30 01:24:53;;;;;;;2.70;1.05;;;9.80;99.90;;;;;;5034359;28;20082;-74
2023/10/30 01:27:19;;;;;;;5.65;0.80;;;9.80;99.90;;;;;;5018110;28;20095;-73
2023/10/30 01:29:44;;;;;;;3.58;0.80;;;9.80;99.90;;;;;;5016777;28;20550;-73
2023/10/30 01:32:10;;;;;;;8.05;1.00;;;9.80;99.90;;;;;;5017129;28;20443;-72
2023/10/30 01:42:22;;;;;;;8.20;0.75;;;9.70;99.90;;;;;;5325957;23;20045;-77
2023/10/30 01:44:58;;;;;;;6.78;1.33;;;9.70;99.90;;;;;;5032019;28;20037;-76
2023/10/30 01:47:26;;;;;;;15.82;1.52;;;9.70;99.90;;;;;;5049523;28;20033;-76
2023/10/30 01:49:52;;;;;;;8.35;0.80;;;9.70;99.90;;;;;;5050305;28;20036;-76
2023/10/30 01:52:18;;;;;;;4.90;0.60;;;9.70;99.90;;;;;;5049607;28;20037;-75
2023/10/30 01:54:50;;;;;;;9.30;1.20;;;9.70;99.90;;;;;;5031381;28;20029;-77
2023/10/30 01:57:17;;;;;;;13.35;1.20;;;9.70;99.90;;;;;;5036512;28;20029;-76
2023/10/30 01:59:44;;;;;;;6.57;1.52;;;9.70;99.90;;;;;;5031774;28;20037;-76
2023/10/30 02:02:10;;;;;;;6.35;0.60;;;9.70;99.90;;;;;;5049638;28;20403;-76
2023/10/30 02:04:36;;;;;;;7.70;0.80;;;9.70;99.90;;;;;;5023160;28;20642;-77
2023/10/30 02:07:05;;;;;;;7.45;0.98;;;9.70;99.90;;;;;;5050214;28;20115;-76
2023/10/30 02:09:31;;;;;;;8.45;0.80;;;9.70;99.90;;;;;;5031257;28;20354;-75
2023/10/30 02:11:57;;;;;;;3.58;0.60;;;9.70;99.90;;;;;;5050053;28;20033;-77
2023/10/30 02:14:24;;;;;;;5.05;1.30;;;9.70;99.90;;;;;;5023439;28;20083;-74
2023/10/30 02:16:50;;;;;;;3.35;0.70;;;9.70;99.90;;;;;;5012216;28;20115;-76
2023/10/30 02:19:24;;;;;;;3.88;1.20;;;9.60;99.90;;;;;;5029451;28;20084;-76
2023/10/30 02:21:54;;;;;;;6.03;0.90;;;9.60;99.90;;;;;;5029571;28;20491;-76
2023/10/30 02:24:20;;;;;;;5.93;1.03;;;9.60;99.90;;;;;;5029164;28;20022;-78
2023/10/30 02:26:47;;;;;;;7.00;1.42;;;9.60;99.90;;;;;;5011467;28;20272;-76
2023/10/30 02:29:12;;;;;;;5.40;0.80;;;9.60;99.90;;;;;;5011484;28;20044;-76
2023/10/30 02:31:38;;;;;;;8.60;0.90;;;9.60;99.90;;;;;;5038549;28;20037;-75
2023/10/30 02:34:04;;;;;;;4.47;0.82;;;9.60;99.90;;;;;;5031542;28;20094;-76
2023/10/30 02:36:30;;;;;;;4.80;0.70;;;9.60;99.90;;;;;;5048442;28;20112;-77
2023/10/30 02:38:55;;;;;;;5.75;1.02;;;9.50;99.90;;;;;;5041468;28;20498;-76
2023/10/30 02:41:21;;;;;;;6.68;1.02;;;9.50;99.90;;;;;;5028762;28;20045;-76
2023/10/30 02:43:47;;;;;;;8.70;1.70;;;9.50;99.90;;;;;;5018515;28;20061;-76
2023/10/30 02:46:13;;;;;;;3.80;0.50;;;9.50;99.90;;;;;;5010444;28;20049;-75
2023/10/30 02:48:39;;;;;;;9.52;1.73;;;9.50;99.90;;;;;;5020416;28;20053;-75
2023/10/30 02:51:04;;;;;;;4.85;0.88;;;9.50;99.90;;;;;;5049147;28;20108;-76
2023/10/30 02:53:30;;;;;;;7.47;1.30;;;9.50;99.90;;;;;;5029702;28;20075;-77
2023/10/30 02:55:56;;;;;;;7.97;1.13;;;9.50;99.90;;;;;;5049327;28;20025;-76
2023/10/30 02:58:21;;;;;;;5.32;0.73;;;9.50;99.90;;;;;;5030596;28;20090;-76
2023/10/30 03:00:48;;;;;;;5.38;0.77;;;9.50;99.90;;;;;;5048648;28;20060;-77
2023/10/30 03:03:14;;;;;;;4.57;0.68;;;9.50;99.90;;;;;;5037724;28;20292;-77
2023/10/30 03:05:39;;;;;;;16.38;2.17;;;9.50;99.90;;;;;;5010267;28;20562;-76
2023/10/30 03:08:05;;;;;;;9.10;1.13;;;9.40;99.90;;;;;;5019096;28;20029;-76
2023/10/30 03:10:31;;;;;;;6.82;1.20;;;9.40;99.90;;;;;;5044980;28;20371;-75
2023/10/30 03:12:56;;;;;;;5.90;0.85;;;9.40;99.90;;;;;;5030627;28;20056;-76
2023/10/30 03:15:22;;;;;;;5.45;0.60;;;9.40;99.90;;;;;;5030219;28;20079;-78
2023/10/30 03:17:48;;;;;;;2.92;0.77;;;9.40;99.90;;;;;;5030552;28;20057;-76
2023/10/30 03:20:14;;;;;;;7.78;1.45;;;9.40;99.90;;;;;;5023154;28;20126;-77
2023/10/30 03:22:40;;;;;;;7.22;0.80;;;9.40;99.90;;;;;;5038429;28;20111;-76
2023/10/30 03:25:06;;;;;;;6.57;1.05;;;9.40;99.90;;;;;;5030837;28;20116;-76
2023/10/30 03:27:33;;;;;;;7.88;1.63;;;9.40;99.90;;;;;;5038313;28;20068;-76
2023/10/30 03:29:59;;;;;;;3.63;0.70;;;9.40;99.90;;;;;;5010602;28;20057;-76
2023/10/30 03:32:25;;;;;;;7.57;1.02;;;9.40;99.90;;;;;;5018867;28;20449;-75
2023/10/30 03:34:51;;;;;;;4.28;0.90;;;9.50;99.90;;;;;;5027019;28;20408;-75
2023/10/30 03:37:16;;;;;;;6.80;0.82;;;9.50;99.90;;;;;;5029353;28;20035;-75
2023/10/30 03:39:42;;;;;;;7.13;0.90;;;9.40;99.90;;;;;;5037289;28;20390;-77
2023/10/30 03:42:07;;;;;;;8.80;0.90;;;9.40;99.90;;;;;;5016442;28;20464;-77
2023/10/30 03:44:33;;;;;;;8.60;0.93;;;9.50;99.90;;;;;;5047114;28;20033;-76
2023/10/30 03:46:58;;;;;;;6.35;1.00;;;9.50;99.90;;;;;;5048361;28;20029;-76
2023/10/30 03:49:24;;;;;;;4.50;1.27;;;9.50;99.90;;;;;;5020546;28;20117;-77
2023/10/30 03:51:51;;;;;;;5.45;1.23;;;9.50;99.90;;;;;;5031635;28;20037;-75
2023/10/30 03:54:16;;;;;;;9.15;0.93;;;9.50;99.90;;;;;;5047169;28;20119;-75
2023/10/30 03:56:42;;;;;;;5.90;1.50;;;9.50;99.90;;;;;;5029067;28;20037;-76
2023/10/30 03:59:08;;;;;;;8.38;1.17;;;9.50;99.90;;;;;;5047259;28;20708;-77
2023/10/30 04:01:35;;;;;;;4.68;0.80;;;9.50;99.90;;;;;;5029277;28;20029;-76
2023/10/30 04:04:01;;;;;;;10.27;1.05;;;9.50;99.90;;;;;;5042399;28;20048;-76
2023/10/30 04:06:27;;;;;;;11.30;2.03;;;9.60;99.90;;;;;;5026893;28;20469;-77
2023/10/30 04:08:52;;;;;;;8.30;1.50;;;9.60;99.90;;;;;;5010109;28;20060;-75
2023/10/30 04:11:18;;;;;;;7.43;0.65;;;9.50;99.90;;;;;;5009765;28;20398;-76
2023/10/30 04:13:44;;;;;;;9.57;2.10;;;9.50;99.90;;;;;;5009308;28;20037;-77
2023/10/30 04:16:11;;;;;;;5.18;1.35;;;9.50;99.90;;;;;;5026864;28;20018;-77
2023/10/30 04:18:37;;;;;;;14.38;1.60;;;9.50;99.90;;;;;;5041419;28;20045;-76
2023/10/30 04:21:04;;;;;;;12.68;1.35;;;9.50;99.90;;;;;;5029633;28;20359;-76
2023/10/30 04:23:30;;;;;;;6.65;1.15;;;9.50;99.90;;;;;;5028125;28;20025;-76
2023/10/30 04:25:56;;;;;;;5.18;0.75;;;9.50;99.90;;;;;;5047702;28;20039;-76
2023/10/30 04:28:21;;;;;;;5.75;0.98;;;9.50;99.90;;;;;;5046775;28;20028;-75
2023/10/30 04:30:47;;;;;;;7.15;0.75;;;9.50;99.90;;;;;;5039046;28;20034;-77
2023/10/30 04:33:13;;;;;;;8.13;1.10;;;9.50;99.90;;;;;;5042962;28;20047;-77
2023/10/30 04:35:38;;;;;;;5.90;0.90;;;9.50;99.90;;;;;;5046441;28;20064;-76
2023/10/30 04:38:04;;;;;;;16.17;2.15;;;9.50;99.90;;;;;;5027327;28;20059;-75
2023/10/30 04:40:30;;;;;;;16.85;1.50;;;9.50;99.90;;;;;;5043759;28;20047;-75
2023/10/30 04:42:55;;;;;;;8.00;0.98;;;9.50;99.90;;;;;;5047342;28;20033;-76
2023/10/30 04:45:21;;;;;;;10.57;1.17;;;9.40;99.90;;;;;;5028735;28;20036;-76
2023/10/30 04:47:46;;;;;;;11.20;1.77;;;9.50;99.90;;;;;;5028903;28;20060;-77
2023/10/30 04:50:12;;;;;;;8.98;0.73;;;9.50;99.90;;;;;;5028717;28;20525;-77
2023/10/30 04:52:38;;;;;;;6.72;0.85;;;9.40;99.90;;;;;;5028368;28;20037;-76
2023/10/30 04:55:03;;;;;;;4.80;1.00;;;9.40;99.90;;;;;;5029278;28;20920;-76
2023/10/30 04:57:29;;;;;;;7.20;0.82;;;9.40;99.90;;;;;;5028414;28;20107;-76
2023/10/30 04:59:55;;;;;;;9.00;1.17;;;9.40;99.90;;;;;;5029580;28;20029;-76
2023/10/30 05:02:20;;;;;;;5.95;1.55;;;9.40;99.90;;;;;;5041970;28;20483;-77
2023/10/30 05:04:46;;;;;;;11.93;0.68;;;9.40;99.90;;;;;;5008642;28;20036;-74
2023/10/30 05:07:12;;;;;;;5.55;0.82;;;9.40;99.90;;;;;;5009173;28;20033;-76
2023/10/30 05:09:37;;;;;;;12.52;1.27;;;9.40;99.90;;;;;;5030378;28;20046;-76
2023/10/30 05:12:03;;;;;;;5.15;0.63;;;9.40;99.90;;;;;;5013307;28;20037;-76
2023/10/30 05:14:29;;;;;;;5.05;1.10;;;9.40;99.90;;;;;;5011636;28;20487;-76
2023/10/30 05:16:54;;;;;;;4.32;0.65;;;9.40;99.90;;;;;;5013302;28;20033;-77
2023/10/30 05:19:20;;;;;;;10.90;0.82;;;9.40;99.90;;;;;;5030453;28;20080;-76
2023/10/30 05:21:46;;;;;;;8.15;1.02;;;9.40;99.90;;;;;;5045847;28;20025;-77
2023/10/30 05:24:11;;;;;;;8.38;1.05;;;9.40;99.90;;;;;;5020288;28;20420;-76
2023/10/30 05:26:37;;;;;;;4.32;0.80;;;9.40;99.90;;;;;;5027293;28;20179;-76
2023/10/30 05:29:03;;;;;;;7.80;1.65;;;9.40;99.90;;;;;;5033009;28;20040;-75
2023/10/30 05:31:28;;;;;;;8.02;1.20;;;9.50;99.90;;;;;;5041625;28;20103;-76
2023/10/30 05:33:54;;;;;;;8.30;0.90;;;9.50;99.90;;;;;;5041860;28;20063;-79
2023/10/30 05:36:20;;;;;;;12.05;1.45;;;9.40;99.90;;;;;;5029214;28;20055;-77
2023/10/30 05:38:46;;;;;;;12.55;1.88;;;9.50;99.90;;;;;;5017118;28;20394;-76
2023/10/30 05:41:12;;;;;;;10.95;0.90;;;9.40;99.90;;;;;;5040354;28;20040;-78
2023/10/30 05:43:37;;;;;;;8.07;1.05;;;9.40;99.90;;;;;;5023895;28;20033;-78
2023/10/30 05:46:03;;;;;;;7.32;1.35;;;9.40;99.90;;;;;;5027644;28;20025;-78
2023/10/30 05:48:29;;;;;;;5.60;0.95;;;9.40;99.90;;;;;;5048350;28;20040;-78
2023/10/30 05:50:54;;;;;;;12.00;2.03;;;9.40;99.90;;;;;;5015563;28;20491;-76
2023/10/30 05:53:20;;;;;;;7.32;1.50;;;9.40;99.90;;;;;;5034519;28;20034;-76
2023/10/30 05:55:46;;;;;;;9.48;1.33;;;9.40;99.90;;;;;;5045642;28;20067;-76
2023/10/30 05:58:12;;;;;;;5.63;1.52;;;9.40;99.90;;;;;;5032112;28;20044;-77
2023/10/30 06:00:38;;;;;;;9.70;1.48;;;9.40;99.90;;;;;;5034293;28;20033;-78
2023/10/30 06:03:07;;;;;;;13.43;1.10;;;9.40;99.90;;;;;;5019041;28;20037;-78
2023/10/30 06:05:33;;;;;;;8.25;1.13;;;9.40;99.90;;;;;;5037447;28;20100;-77
2023/10/30 06:07:58;;;;;;;8.90;0.93;;;9.40;99.90;;;;;;5019909;28;20385;-77
2023/10/30 06:10:24;;;;;;;7.70;1.13;;;9.40;99.90;;;;;;5024275;28;20113;-77
2023/10/30 06:12:50;;;;;;;6.75;1.80;;;9.40;99.90;;;;;;5030794;28;20048;-76
2023/10/30 06:15:16;;;;;;;14.18;1.90;;;9.40;99.90;;;;;;5028629;28;20037;-76
2023/10/30 06:17:41;;;;;;;5.97;1.50;;;9.40;99.90;;;;;;5011127;28;20050;-76
2023/10/30 06:20:08;;;;;;;7.13;1.05;;;9.40;99.90;;;;;;5025871;28;20178;-75
2023/10/30 06:22:34;;;;;;;7.70;1.10;;;9.40;99.90;;;;;;5030549;28;20116;-74
2023/10/30 06:25:00;;;;;;;7.18;1.05;;;9.40;99.90;;;;;;5030343;28;20083;-75
2023/10/30 06:27:31;;;;;;;8.68;2.20;;;9.30;99.90;;;;;;5043361;28;20101;-77
2023/10/30 06:29:57;;;;;;;8.68;2.13;;;9.30;99.90;;;;;;5016446;28;20482;-76
2023/10/30 06:32:22;;;;;;;10.13;1.63;;;9.30;99.90;;;;;;5041958;28;20032;-76
2023/10/30 06:34:48;;;;;;;9.15;1.75;;;9.40;99.90;;;;;;5030089;28;20032;-75
2023/10/30 06:37:15;;;;;;;7.40;1.70;;;9.30;99.90;;;;;;5023619;28;20041;-75
2023/10/30 06:39:41;;;;;;;5.70;1.08;;;9.30;99.90;;;;;;5034633;28;20095;-76
2023/10/30 06:42:07;;;;;;;9.20;1.23;;;9.30;99.90;;;;;;5015755;28;20651;-75
2023/10/30 06:44:32;;;;;;;13.18;2.47;;;9.30;99.90;;;;;;5025247;28;20032;-76
2023/10/30 06:46:59;;;;;;;8.20;1.70;;;9.30;99.90;;;;;;5040530;28;20041;-77
2023/10/30 06:49:24;;;;;;;6.25;1.58;;;9.30;99.90;;;;;;5045992;28;20120;-76
2023/10/30 06:51:50;;;;;;;8.43;1.75;;;9.30;99.90;;;;;;5048673;28;20123;-76
2023/10/30 06:54:16;;;;;;;5.30;1.27;;;9.30;99.90;;;;;;5030489;28;20025;-75
2023/10/30 06:56:41;;;;;;;4.85;1.58;;;9.30;99.90;;;;;;5031190;28;20115;-76
2023/10/30 06:59:12;;;;;;;6.70;0.70;;;9.30;99.90;;;;;;5049039;28;20037;-75
2023/10/30 07:01:46;;;;;;;13.32;1.55;;;9.30;99.90;;;;;;5030023;28;20051;-77
2023/10/30 07:04:12;;;;;;;13.13;1.95;;;9.30;99.90;;;;;;5030343;28;20696;-76
2023/10/30 07:06:40;;;;;;;9.60;1.10;;;9.30;99.90;;;;;;5049639;28;20041;-74
2023/10/30 07:09:08;;;;;;;7.72;0.98;;;9.40;99.90;;;;;;5031240;28;20036;-76
2023/10/30 07:11:39;;;;;;;8.38;1.10;;;9.40;99.90;;;;;;5029482;28;20040;-75
2023/10/30 07:14:05;;;;;;;8.57;1.55;;;9.40;99.90;;;;;;5021115;28;20045;-77
2023/10/30 07:16:31;;;;;;;8.80;1.23;;;9.50;99.90;;;;;;5038895;28;20035;-77
2023/10/30 07:18:57;;;;;;;6.13;1.00;;;9.40;99.90;;;;;;5041402;28;20765;-76
2023/10/30 07:21:23;;;;;;;17.33;1.85;;;9.50;99.90;;;;;;5027861;28;20456;-78
2023/10/30 07:23:49;;;;;;;11.88;1.10;;;9.50;99.90;;;;;;5046211;28;20383;-76
2023/10/30 07:26:16;;;;;;;8.55;1.83;;;9.50;99.90;;;;;;5042349;28;20048;-76
2023/10/30 07:28:45;;;;;;;8.73;1.98;;;9.60;99.90;;;;;;5025849;28;20037;-77
2023/10/30 07:31:11;;;;;;;5.32;1.15;;;9.60;99.90;;;;;;5041693;28;20053;-78
2023/10/30 07:36:14;;;;;;;11.05;1.42;;;9.70;99.90;;;;;;5044459;28;20095;-73
2023/10/30 07:38:41;;;;;;;7.90;1.45;;;9.70;99.90;;;;;;5048202;28;20041;-74
2023/10/30 07:41:07;;;;;;;6.30;1.30;;;9.80;99.90;;;;;;5031362;28;20453;-73
2023/10/30 07:43:34;;;;;;;8.73;1.20;;;9.80;99.90;;;;;;5031778;28;20037;-72
2023/10/30 07:45:59;;;;;;;8.02;1.23;;;9.80;99.90;;;;;;5048556;28;20051;-72
2023/10/30 07:48:26;;;;;;;8.30;0.98;;;9.90;99.90;;;;;;5031588;28;20056;-74
2023/10/30 07:50:52;;;;;;;6.75;0.70;;;10.00;99.90;;;;;;5035762;28;20037;-74
2023/10/30 07:53:18;;;;;;;8.60;1.30;;;10.00;99.90;;;;;;5041837;28;20378;-74
2023/10/30 07:55:46;;;;;;;7.57;1.23;;;10.10;99.90;;;;;;5019626;28;20066;-73
2023/10/30 07:58:12;;;;;;;7.38;1.13;;;10.20;99.90;;;;;;5015582;28;20033;-73
2023/10/30 08:00:39;;;;;;;16.13;1.67;;;10.30;99.90;;;;;;5037209;28;20044;-73
2023/10/30 08:03:05;;;;;;;6.35;1.40;;;10.40;99.90;;;;;;5015293;28;20040;-72
2023/10/30 08:05:32;;;;;;;14.48;1.85;;;10.50;99.90;;;;;;5014795;28;20044;-73
2023/10/30 08:07:57;;;;;;;16.05;2.35;;;10.60;99.90;;;;;;5020436;28;20160;-73
2023/10/30 08:10:23;;;;;;;11.18;1.85;;;10.70;99.90;;;;;;5039569;28;20119;-73
2023/10/30 08:12:48;;;;;;;8.82;1.02;;;10.80;99.90;;;;;;5019307;28;20041;-73
2023/10/30 08:15:15;;;;;;;7.00;0.90;;;10.80;99.90;;;;;;5022825;28;20037;-73
2023/10/30 08:17:40;;;;;;;8.05;1.23;;;10.90;99.90;;;;;;5035431;28;20052;-74
2023/10/30 08:20:06;;;;;;;11.38;1.25;;;11.00;99.90;;;;;;5027556;28;20025;-72
2023/10/30 08:22:32;;;;;;;13.32;1.63;;;11.10;99.90;;;;;;5046510;28;20048;-73
2023/10/30 08:24:59;;;;;;;9.20;1.10;;;11.10;99.90;;;;;;5039657;28;20033;-73
2023/10/30 08:27:24;;;;;;;6.97;1.52;;;11.20;99.90;;;;;;5040605;28;20047;-75
2023/10/30 08:29:50;;;;;;;5.38;1.05;;;11.20;99.90;;;;;;5036397;28;20041;-73
2023/10/30 08:32:15;;;;;;;8.80;1.67;;;11.30;99.90;;;;;;5049173;28;20041;-73
2023/10/30 08:34:41;;;;;;;7.85;1.92;;;11.20;99.90;;;;;;5037725;28;20135;-74
2023/10/30 08:37:06;;;;;;;4.10;0.73;;;11.20;99.90;;;;;;5051415;28;20409;-72
2023/10/30 08:39:32;;;;;;;11.13;1.30;;;11.20;99.90;;;;;;5034818;28;20060;-74
2023/10/30 08:41:58;;;;;;;10.75;1.38;;;11.20;99.90;;;;;;5040045;28;20524;-73
2023/10/30 08:44:24;;;;;;;7.53;1.08;;;11.20;99.90;;;;;;5036353;28;20486;-74
2023/10/30 08:46:50;;;;;;;4.03;0.82;;;11.30;99.90;;;;;;5037607;28;20045;-74
2023/10/30 08:49:16;;;;;;;8.10;1.38;;;11.20;99.90;;;;;;5029717;28;20159;-73
2023/10/30 08:51:42;;;;;;;5.63;1.08;;;11.30;99.90;;;;;;5046607;28;20557;-73
2023/10/30 08:54:08;;;;;;;18.05;1.75;;;11.30;99.90;;;;;;5033451;28;20450;-73
2023/10/30 08:56:33;;;;;;;7.47;1.35;;;11.30;99.90;;;;;;5046348;28;20076;-74
2023/10/30 08:58:59;;;;;;;6.75;0.85;;;11.30;99.90;;;;;;5031128;28;20037;-73
2023/10/30 09:01:26;;;;;;;13.48;2.45;;;11.40;99.90;;;;;;5045595;28;20029;-73
2023/10/30 09:03:52;;;;;;;5.90;0.90;;;11.40;99.90;;;;;;5046352;28;20486;-73
2023/10/30 09:06:18;;;;;;;6.78;0.80;;;11.40;99.90;;;;;;5045859;28;20509;-73
2023/10/30 09:08:44;;;;;;;9.93;1.38;;;11.40;99.90;;;;;;5046681;28;20037;-73
2023/10/30 09:11:10;;;;;;;9.63;0.77;;;11.40;99.90;;;;;;5045635;28;20375;-74
2023/10/30 09:13:35;;;;;;;5.85;1.63;;;11.40;99.90;;;;;;5031833;28;20130;-74
2023/10/30 09:16:01;;;;;;;13.98;1.00;;;11.50;99.90;;;;;;5046025;28;20096;-75
2023/10/30 09:18:26;;;;;;;4.35;1.15;;;11.50;99.90;;;;;;5036593;28;20029;-74
2023/10/30 09:20:52;;;;;;;14.60;1.63;;;11.50;99.90;;;;;;5046789;28;20036;-73
2023/10/30 09:23:17;;;;;;;3.22;0.88;;;11.50;99.90;;;;;;5045426;28;20112;-73
2023/10/30 09:25:43;;;;;;;8.25;2.05;;;11.60;99.90;;;;;;5036279;28;20494;-73
2023/10/30 09:28:09;;;;;;;7.75;0.88;;;11.70;99.90;;;;;;5042553;28;20045;-73
2023/10/30 09:30:34;;;;;;;9.48;1.50;;;11.70;99.90;;;;;;5042561;28;20045;-74
2023/10/30 09:33:00;;;;;;;11.75;1.15;;;11.70;99.90;;;;;;5032079;28;20045;-74
2023/10/30 09:35:33;;;;;;;12.23;1.15;;;11.70;99.90;;;;;;5036339;28;20096;-74
2023/10/30 09:37:59;;;;;;;7.30;1.27;;;11.80;99.90;;;;;;5037196;28;20116;-75
2023/10/30 09:40:28;;;;;;;6.32;0.93;;;11.80;99.90;;;;;;5045115;28;20524;-74
2023/10/30 09:42:55;;;;;;;10.48;1.10;;;11.80;99.90;;;;;;5032425;28;20045;-75
2023/10/30 09:45:25;;;;;;;7.53;1.20;;;11.80;99.90;;;;;;5044892;28;20029;-73
2023/10/30 09:47:57;;;;;;;7.97;1.73;;;11.80;99.90;;;;;;5039282;28;20053;-73
2023/10/30 09:50:24;;;;;;;10.50;1.23;;;11.80;99.90;;;;;;5044922;28;20033;-74
2023/10/30 09:52:51;;;;;;;9.20;1.00;;;11.80;99.90;;;;;;5045660;28;20045;-74
2023/10/30 09:55:23;;;;;;;13.40;1.77;;;11.90;99.90;;;;;;5035600;28;20032;-74
2023/10/30 09:57:51;;;;;;;6.35;0.82;;;11.90;99.90;;;;;;5049162;28;20033;-74
2023/10/30 10:00:17;;;;;;;12.18;1.67;;;11.90;99.90;;;;;;5042355;28;20043;-74
2023/10/30 10:02:43;;;;;;;5.78;1.00;;;11.90;99.90;;;;;;5033435;28;20072;-73
2023/10/30 10:05:09;;;;;;;6.30;1.10;;;11.90;99.90;;;;;;5032669;28;20041;-75
2023/10/30 10:07:35;;;;;;;6.97;1.40;;;12.00;99.90;;;;;;5036583;28;20049;-75
2023/10/30 10:10:03;;;;;;;8.80;1.45;;;12.00;99.90;;;;;;5048736;28;20040;-74
2023/10/30 10:12:30;;;;;;;10.00;1.00;;;12.10;99.90;;;;;;5028286;28;20044;-74
2023/10/30 10:14:56;;;;;;;6.30;1.20;;;12.10;99.90;;;;;;5034797;28;20025;-74
2023/10/30 10:17:22;;;;;;;6.95;0.88;;;12.20;99.90;;;;;;5050103;28;20459;-73
2023/10/30 10:19:48;;;;;;;14.07;1.33;;;12.30;99.90;;;;;;5041169;28;20033;-73
2023/10/30 10:22:31;;;;;;;7.32;1.15;;;12.40;99.90;;;;;;5046657;28;20025;-73
2023/10/30 10:24:57;;;;;;;6.78;1.35;;;12.60;99.90;;;;;;5036103;28;20033;-73
2023/10/30 10:27:26;;;;;;;6.53;1.83;;;12.80;99.90;;;;;;5041272;28;20102;-73
2023/10/30 10:29:55;;;;;;;3.60;0.90;;;12.90;99.90;;;;;;5043924;28;20021;-74
2023/10/30 10:32:26;;;;;;;6.22;0.73;;;13.00;99.90;;;;;;5035018;28;20044;-75
2023/10/30 10:35:05;;;;;;;3.17;1.10;;;13.20;99.90;;;;;;5054096;28;20401;-73
2023/10/30 10:37:34;;;;;;;7.53;1.20;;;13.30;99.90;;;;;;5033527;28;20584;-73
2023/10/30 10:40:01;;;;;;;7.50;1.98;;;13.40;99.90;;;;;;5050430;28;20040;-74
2023/10/30 10:42:30;;;;;;;6.38;1.02;;;13.40;99.90;;;;;;5048010;28;20589;-73
2023/10/30 10:44:56;;;;;;;8.50;1.42;;;13.30;99.90;;;;;;5032825;28;20029;-73
2023/10/30 10:47:23;;;;;;;6.88;1.08;;;13.30;99.90;;;;;;5060001;28;20401;-73
2023/10/30 10:49:50;;;;;;;10.32;1.25;;;13.20;99.90;;;;;;5032817;28;20464;-73
2023/10/30 10:52:17;;;;;;;4.22;0.75;;;13.10;99.90;;;;;;5037304;28;20032;-73
2023/10/30 10:55:04;;;;;;;3.33;1.02;;;13.00;99.90;;;;;;5053721;28;20036;-73
2023/10/30 10:57:51;;;;;;;1.50;0.40;;;13.00;99.90;;;;;;5037333;28;20033;-73
2023/10/30 11:00:17;;;;;;;5.05;0.75;;;13.00;99.90;;;;;;5044351;28;20068;-73
2023/10/30 11:02:48;;;;;;;7.68;1.20;;;13.00;99.90;;;;;;5053623;28;20044;-74
2023/10/30 11:05:15;;;;;;;4.47;1.00;;;13.10;99.90;;;;;;5032462;28;20072;-74
2023/10/30 11:07:54;;;;;;;7.38;0.88;;;13.10;99.90;;;;;;5037029;28;20082;-73
2023/10/30 11:10:32;;;;;;;12.30;0.93;;;13.20;99.90;;;;;;5053898;28;20111;-74
2023/10/30 11:13:14;;;;;;;4.15;1.00;;;13.20;99.90;;;;;;5030002;28;20506;-73
2023/10/30 11:16:07;;;;;;;5.22;1.23;;;13.20;99.90;;;;;;5030021;28;20075;-73
2023/10/30 11:18:33;;;;;;;4.70;1.05;;;13.20;99.90;;;;;;5028192;28;20037;-74
2023/10/30 11:21:13;;;;;;;8.40;1.30;;;13.20;99.90;;;;;;5044485;28;20041;-74
2023/10/30 11:23:45;;;;;;;1.90;0.60;;;13.20;99.90;;;;;;5025626;28;20032;-73
2023/10/30 11:26:37;;;;;;;7.03;1.17;;;13.20;99.90;;;;;;5057216;28;20288;-74
2023/10/30 11:29:08;;;;;;;5.63;0.70;;;13.20;99.90;;;;;;5047972;28;20115;-75
2023/10/30 11:31:54;;;;;;;7.55;1.33;;;13.20;99.90;;;;;;5039560;28;20715;-73
2023/10/30 11:34:25;;;;;;;8.00;0.80;;;13.20;99.90;;;;;;5048706;28;20061;-75
2023/10/30 11:36:51;;;;;;;5.88;1.38;;;13.30;99.90;;;;;;5032233;28;20073;-75
2023/10/30 11:39:20;;;;;;;7.38;0.85;;;13.30;99.90;;;;;;5033160;28;20065;-73
2023/10/30 11:41:50;;;;;;;5.00;0.95;;;13.30;99.90;;;;;;5027939;28;20133;-74
2023/10/30 11:44:16;;;;;;;5.55;1.25;;;13.30;99.90;;;;;;5028760;28;20057;-75
2023/10/30 11:46:44;;;;;;;5.30;0.95;;;13.40;99.90;;;;;;5045877;28;20573;-74
2023/10/30 11:49:14;;;;;;;5.10;1.25;;;13.40;99.90;;;;;;5030964;28;20514;-74
2023/10/30 11:51:46;;;;;;;9.07;0.95;;;13.40;99.90;;;;;;5046111;28;20397;-73
2023/10/30 11:54:18;;;;;;;4.18;1.13;;;13.50;99.90;;;;;;5031014;28;20118;-73
2023/10/30 11:56:48;;;;;;;4.72;0.95;;;13.50;99.90;;;;;;5036299;28;20075;-73
2023/10/30 11:59:15;;;;;;;5.97;0.68;;;13.50;99.90;;;;;;5034692;28;20040;-73
2023/10/30 12:01:42;;;;;;;4.53;1.17;;;13.50;99.90;;;;;;5036349;28;20112;-73
2023/10/30 12:04:08;;;;;;;12.20;1.15;;;13.50;99.90;;;;;;5035312;28;20037;-74
2023/10/30 12:06:33;;;;;;;13.68;1.52;;;13.50;99.90;;;;;;5031444;28;20067;-73
2023/10/30 12:08:59;;;;;;;1.80;0.63;;;13.50;99.90;;;;;;5029535;28;20057;-73
2023/10/30 12:11:24;;;;;;;11.57;1.10;;;13.60;99.90;;;;;;5034068;28;20390;-74
2023/10/30 12:13:51;;;;;;;8.02;1.27;;;13.60;99.90;;;;;;5037418;28;20037;-74
2023/10/30 12:16:16;;;;;;;8.63;0.85;;;13.60;99.90;;;;;;5045960;28;20122;-72
2023/10/30 12:18:42;;;;;;;3.10;0.77;;;13.60;99.90;;;;;;5047558;28;20041;-74
2023/10/30 12:21:07;;;;;;;12.85;1.52;;;13.50;99.90;;;;;;5046704;28;20025;-73
2023/10/30 12:23:33;;;;;;;7.47;1.58;;;13.60;99.90;;;;;;5031631;28;20043;-75
2023/10/30 12:26:05;;;;;;;7.70;1.95;;;13.50;99.90;;;;;;5046562;28;20035;-75
2023/10/30 12:28:38;;;;;;;7.38;1.67;;;13.50;99.90;;;;;;5033579;28;20458;-74
2023/10/30 12:31:17;;;;;;;8.25;0.98;;;13.40;99.90;;;;;;5029587;28;20558;-73
2023/10/30 12:33:43;;;;;;;4.82;1.08;;;13.50;99.90;;;;;;5028693;28;20029;-73
2023/10/30 12:36:08;;;;;;;6.68;1.40;;;13.40;99.90;;;;;;5050041;28;20037;-73
2023/10/30 12:38:34;;;;;;;4.88;0.80;;;13.40;99.90;;;;;;5051979;28;20032;-75
2023/10/30 12:41:06;;;;;;;8.70;0.82;;;13.30;99.90;;;;;;5032230;28;20047;-76
2023/10/30 12:43:37;;;;;;;9.38;1.42;;;13.30;99.90;;;;;;5050023;28;20671;-73
2023/10/30 12:46:03;;;;;;;9.88;0.88;;;13.30;99.90;;;;;;5049933;28;20119;-73
2023/10/30 12:48:29;;;;;;;4.85;0.55;;;13.30;99.90;;;;;;5033255;28;20116;-74
2023/10/30 12:50:54;;;;;;;6.43;0.68;;;13.20;99.90;;;;;;5035025;28;20438;-74
2023/10/30 12:53:20;;;;;;;7.97;1.30;;;13.20;99.90;;;;;;5029506;28;20056;-73
2023/10/30 12:55:45;;;;;;;5.07;0.60;;;13.20;99.90;;;;;;5034370;28;20048;-74
2023/10/30 12:58:11;;;;;;;7.72;1.02;;;13.20;99.90;;;;;;5027253;28;20059;-73
2023/10/30 13:00:36;;;;;;;7.63;0.80;;;13.10;99.90;;;;;;5049516;28;20039;-73